LYBE/BEG METAR and TAF weather

Enter ICAO airport designator
Station Type Date Time Source
LYBE METAR 2021/03/05 00:30 UTC NOAA

LYBE 050030Z 24008KT CAVOK 06/M04 Q1016 NOSIG


Station Type Date Time Source
LYBE Decoded METAR 2021/03/05 00:30 UTC NOAA

Beograd / Surcin, Serbia and Montenegro (LYBE) 44-49N 020-17E 99M
Mar 04, 2021 - 07:30 PM EST / 2021.03.05 0030 UTC
Wind: from the WSW (240 degrees) at 9 MPH (8 KT):0
Visibility: greater than 7 mile(s):0
Temperature: 42 F (6 C)
Dew Point: 24 F (-4 C)
Relative Humidity: 48%
Pressure (altimeter): 30.00 in. Hg (1016 hPa)
ob: LYBE 050030Z 24008KT CAVOK 06/M04 Q1016 NOSIG
cycle: 0

Station Type Date Time Source
LYBE TAF 2021/03/04 18:21 UTC NOAA

TAF LYBE 041700Z 0418/0518 24005KT CAVOK TX14/0512Z TN01/0506Z
TEMPO 0510/0514 28015KT
BECMG 0514/0516 32010KT

Example: see airport list